Time;durP1;ratioP1;P1;durP2;ratioP2;P2;SDS_P1;SDS_P2;PMS_P1;PMS_P2;Temp;Humidity;BMP_temperature;BMP_pressure;BME280_temperature;BME280_humidity;BME280_pressure;Samples;Min_cycle;Max_cycle;Signal;HPM_P1;HPM_P2
2021/12/16 00:05:24;;;;;;;12.20;3.35;;;8.60;99.90;;;;;;4264959;27;20486;-81
2021/12/16 00:07:31;;;;;;;7.30;3.78;;;8.80;99.90;;;;;;4264945;27;20046;-82
2021/12/16 00:30:05;;;;;;;15.20;3.72;;;8.70;99.90;;;;;;4229078;28;19919;-82
2021/12/16 00:32:22;;;;;;;11.65;3.60;;;8.70;99.90;;;;;;4246571;27;20039;-82
2021/12/16 00:34:27;;;;;;;10.82;3.80;;;8.70;99.90;;;;;;4264315;27;20482;-82
2021/12/16 00:36:32;;;;;;;15.00;4.43;;;9.20;99.90;;;;;;4263947;27;20436;-82
2021/12/16 00:38:35;;;;;;;20.77;4.47;;;8.70;99.90;;;;;;4245421;27;20135;-82
2021/12/16 00:40:42;;;;;;;15.10;3.85;;;8.70;99.90;;;;;;4227903;28;20055;-82
2021/12/16 00:42:54;;;;;;;9.32;3.45;;;8.70;99.90;;;;;;4246090;28;20429;-82
2021/12/16 00:56:19;;;;;;;15.52;3.70;;;8.70;99.90;;;;;;4211440;28;20059;-82
2021/12/16 00:58:27;;;;;;;16.70;5.47;;;8.70;99.90;;;;;;4213591;28;20044;-82
2021/12/16 01:00:30;;;;;;;14.43;4.20;;;8.70;99.90;;;;;;4232159;28;20047;-82
2021/12/16 01:07:55;;;;;;;16.17;4.18;;;8.80;99.90;;;;;;4163344;28;20056;-81
2021/12/16 01:51:13;;;;;;;15.02;3.15;;;8.80;99.90;;;;;;4207852;28;20066;-82
2021/12/16 01:54:14;;;;;;;11.80;3.22;;;8.80;99.90;;;;;;4249779;27;20051;-82
2021/12/16 01:55:49;;;;;;;10.10;2.97;;;8.80;99.90;;;;;;4245753;27;20062;-82
2021/12/16 01:57:58;;;;;;;11.18;3.70;;;8.80;99.90;;;;;;4249298;27;20043;-82
2021/12/16 02:00:07;;;;;;;7.55;3.00;;;8.80;99.90;;;;;;4249396;27;20046;-82
2021/12/16 02:02:19;;;;;;;11.32;3.85;;;9.00;99.90;;;;;;4249549;27;20046;-82
2021/12/16 02:04:28;;;;;;;18.40;3.25;;;9.10;99.90;;;;;;4249785;27;20066;-82
2021/12/16 02:08:39;;;;;;;8.90;3.05;;;8.80;99.90;;;;;;4231326;28;20116;-82
2021/12/16 02:10:46;;;;;;;13.10;3.65;;;8.80;99.90;;;;;;4231266;28;20051;-82
2021/12/16 02:35:47;;;;;;;7.53;2.75;;;8.80;99.90;;;;;;4218778;27;20059;-82
2021/12/16 02:37:49;;;;;;;10.75;3.28;;;8.80;99.90;;;;;;4233055;28;20063;-83
2021/12/16 02:39:50;;;;;;;13.23;3.65;;;8.90;99.90;;;;;;4248860;28;20074;-82
2021/12/16 02:42:07;;;;;;;16.42;3.20;;;8.80;99.90;;;;;;4267200;27;20171;-82
2021/12/16 02:48:41;;;;;;;15.88;3.60;;;8.80;99.90;;;;;;4273027;27;20096;-82
2021/12/16 02:50:42;;;;;;;7.72;2.72;;;8.70;99.90;;;;;;4267378;27;20042;-82
2021/12/16 02:52:43;;;;;;;13.75;3.05;;;8.70;99.90;;;;;;4266725;27;20050;-82
2021/12/16 02:54:45;;;;;;;13.68;2.78;;;8.70;99.90;;;;;;4248792;27;20043;-82
2021/12/16 02:56:46;;;;;;;9.38;2.88;;;8.70;99.90;;;;;;4266528;27;20052;-82
2021/12/16 02:58:51;;;;;;;10.70;3.10;;;8.90;99.90;;;;;;4265845;27;20038;-82
2021/12/16 03:01:02;;;;;;;10.85;2.67;;;8.90;99.90;;;;;;4265183;27;20043;-82
2021/12/16 03:03:04;;;;;;;15.65;2.97;;;8.70;99.90;;;;;;4247859;27;20149;-82
2021/12/16 03:05:05;;;;;;;18.23;3.72;;;8.80;99.90;;;;;;4254975;27;20047;-82
2021/12/16 03:07:09;;;;;;;16.15;3.72;;;8.70;99.90;;;;;;4213729;28;20803;-82
2021/12/16 03:09:13;;;;;;;12.85;3.80;;;8.60;99.90;;;;;;4248862;27;20039;-82
2021/12/16 03:12:27;;;;;;;9.60;3.50;;;8.90;99.90;;;;;;4230462;28;20558;-82
2021/12/16 03:14:03;;;;;;;17.67;4.47;;;8.70;99.90;;;;;;4218937;28;20238;-82
2021/12/16 03:20:17;;;;;;;12.70;3.83;;;8.60;99.90;;;;;;4230132;28;20257;-82
2021/12/16 03:22:48;;;;;;;8.55;2.90;;;8.50;99.90;;;;;;4248399;27;20479;-82
2021/12/16 03:25:12;;;;;;;10.60;2.92;;;8.50;99.90;;;;;;4246551;27;20471;-82
2021/12/16 03:34:16;;;;;;;16.63;3.63;;;8.40;99.90;;;;;;4248495;27;20466;-81
2021/12/16 03:38:24;;;;;;;10.18;3.05;;;8.30;99.90;;;;;;4248250;27;20058;-82
2021/12/16 03:40:26;;;;;;;14.60;3.20;;;8.40;99.90;;;;;;4229860;28;20055;-81
2021/12/16 03:42:31;;;;;;;10.07;3.25;;;8.20;99.90;;;;;;4248169;27;20084;-81
2021/12/16 03:44:49;;;;;;;9.88;3.33;;;8.10;99.90;;;;;;4248169;27;20043;-81
2021/12/16 03:46:50;;;;;;;14.98;4.28;;;8.20;99.90;;;;;;4247393;27;20097;-82
2021/12/16 03:49:00;;;;;;;20.13;4.28;;;8.60;99.90;;;;;;4231646;27;20053;-82
2021/12/16 03:51:05;;;;;;;14.30;3.47;;;8.10;99.90;;;;;;4246312;27;20078;-82
2021/12/16 03:53:06;;;;;;;13.63;3.28;;;8.10;99.90;;;;;;4264765;27;20046;-82
2021/12/16 03:55:09;;;;;;;10.02;3.60;;;8.00;99.90;;;;;;4264699;27;20042;-82
2021/12/16 03:57:12;;;;;;;12.10;3.42;;;8.00;99.90;;;;;;4245587;27;20031;-82
2021/12/16 03:59:18;;;;;;;15.10;3.17;;;8.00;99.90;;;;;;4264449;27;20375;-82
2021/12/16 04:01:22;;;;;;;13.48;2.88;;;8.00;99.90;;;;;;4244591;27;20051;-82
2021/12/16 04:03:23;;;;;;;11.50;3.15;;;8.10;99.90;;;;;;4246198;27;20043;-82
2021/12/16 04:05:26;;;;;;;10.50;3.47;;;8.10;99.90;;;;;;4234487;27;20054;-81
2021/12/16 04:07:30;;;;;;;12.95;3.80;;;7.90;99.90;;;;;;4246744;27;20054;-82
2021/12/16 04:09:33;;;;;;;18.08;3.63;;;7.90;99.90;;;;;;4247403;27;20104;-82
2021/12/16 04:11:41;;;;;;;17.80;3.38;;;7.80;99.90;;;;;;4247090;27;20142;-82
2021/12/16 04:13:54;;;;;;;9.77;3.58;;;8.30;99.90;;;;;;4247257;27;20482;-81
2021/12/16 04:15:55;;;;;;;8.98;3.25;;;7.90;99.90;;;;;;4228900;27;20149;-82
2021/12/16 04:17:55;;;;;;;11.55;3.50;;;7.80;99.90;;;;;;4247160;27;20042;-81
2021/12/16 04:19:59;;;;;;;12.48;4.05;;;7.80;99.90;;;;;;4246966;27;20039;-82
2021/12/16 04:22:09;;;;;;;10.90;3.88;;;7.80;99.90;;;;;;4229301;27;20047;-82
2021/12/16 04:24:11;;;;;;;11.38;3.35;;;7.80;99.90;;;;;;4247029;27;20061;-82
2021/12/16 04:26:14;;;;;;;10.27;3.10;;;8.20;99.90;;;;;;4247056;27;20099;-82
2021/12/16 04:28:20;;;;;;;11.25;3.83;;;7.70;99.90;;;;;;4246399;27;20093;-82
2021/12/16 04:30:23;;;;;;;15.20;4.00;;;7.70;99.90;;;;;;4228420;28;20127;-82
2021/12/16 04:32:24;;;;;;;8.98;3.80;;;7.70;99.90;;;;;;4246999;27;20441;-82
2021/12/16 04:34:26;;;;;;;8.75;3.80;;;7.70;99.90;;;;;;4246746;27;20055;-82
2021/12/16 04:36:26;;;;;;;9.52;3.78;;;7.60;99.90;;;;;;4245726;27;20090;-82
2021/12/16 04:38:27;;;;;;;19.63;4.03;;;8.40;99.90;;;;;;4245888;27;20054;-82
2021/12/16 04:40:29;;;;;;;9.77;3.20;;;8.50;99.90;;;;;;4234779;28;20101;-82
2021/12/16 04:42:30;;;;;;;8.70;4.05;;;7.60;99.90;;;;;;4229059;28;20151;-82
2021/12/16 04:44:31;;;;;;;13.50;3.78;;;7.60;99.90;;;;;;4257122;27;20046;-82
2021/12/16 04:46:32;;;;;;;14.77;3.55;;;8.10;99.90;;;;;;4239706;28;20079;-82
2021/12/16 04:48:33;;;;;;;9.45;3.58;;;7.80;99.90;;;;;;4247328;28;20047;-82
2021/12/16 04:50:34;;;;;;;9.98;3.45;;;7.60;99.90;;;;;;4246994;28;20616;-82
2021/12/16 04:52:35;;;;;;;11.63;3.42;;;7.50;99.90;;;;;;4247792;27;20039;-82
2021/12/16 04:54:36;;;;;;;10.07;3.38;;;7.50;99.90;;;;;;4247473;28;20394;-82
2021/12/16 04:56:40;;;;;;;16.85;3.67;;;7.60;99.90;;;;;;4247228;28;20118;-82
2021/12/16 04:58:42;;;;;;;13.60;3.15;;;7.50;99.90;;;;;;4228303;28;20122;-82
2021/12/16 05:00:43;;;;;;;12.45;3.85;;;7.50;99.90;;;;;;4247207;28;20133;-82
2021/12/16 05:02:45;;;;;;;19.40;4.30;;;7.40;99.90;;;;;;4228917;28;20063;-81
2021/12/16 05:04:47;;;;;;;9.00;2.92;;;7.50;99.90;;;;;;4247369;27;20046;-82
2021/12/16 05:06:48;;;;;;;14.07;3.60;;;7.40;99.90;;;;;;4247554;28;20078;-82
2021/12/16 05:08:48;;;;;;;10.70;3.38;;;7.30;99.90;;;;;;4246967;27;20047;-82
2021/12/16 05:10:54;;;;;;;11.93;3.67;;;7.30;99.90;;;;;;4228514;28;20064;-82
2021/12/16 05:12:58;;;;;;;15.30;4.43;;;7.30;99.90;;;;;;4247846;27;20115;-82
2021/12/16 05:14:59;;;;;;;11.35;3.42;;;7.20;99.90;;;;;;4232207;28;20039;-82
2021/12/16 05:17:05;;;;;;;10.63;3.30;;;7.20;99.90;;;;;;4224853;28;20035;-82
2021/12/16 05:19:06;;;;;;;17.70;3.88;;;7.20;99.90;;;;;;4232552;28;20051;-82
2021/12/16 05:21:25;;;;;;;12.45;4.80;;;7.10;99.90;;;;;;4250872;27;20043;-82
2021/12/16 05:27:55;;;;;;;15.73;3.45;;;7.10;99.90;;;;;;4250302;27;20043;-82
2021/12/16 05:29:56;;;;;;;9.93;4.22;;;7.10;99.90;;;;;;4250117;27;20087;-82
2021/12/16 05:31:58;;;;;;;10.13;3.13;;;7.10;99.90;;;;;;4232025;28;20553;-82
2021/12/16 05:34:00;;;;;;;9.98;3.50;;;7.60;99.90;;;;;;4250247;27;20045;-82
2021/12/16 05:36:01;;;;;;;9.20;4.28;;;7.50;99.90;;;;;;4214261;28;20114;-82
2021/12/16 05:38:03;;;;;;;12.23;3.45;;;7.10;99.90;;;;;;4231963;28;20280;-82
2021/12/16 05:40:04;;;;;;;13.05;3.55;;;7.50;99.90;;;;;;4250110;27;20171;-82
2021/12/16 05:42:05;;;;;;;8.23;3.60;;;7.10;99.90;;;;;;4249641;27;20051;-81
2021/12/16 05:44:06;;;;;;;9.90;3.72;;;7.20;99.90;;;;;;4250543;27;20066;-81
2021/12/16 05:46:09;;;;;;;13.60;3.50;;;7.10;99.90;;;;;;4249745;27;20145;-81
2021/12/16 05:48:12;;;;;;;15.02;4.47;;;7.20;99.90;;;;;;4231979;28;20086;-81
2021/12/16 05:50:13;;;;;;;12.18;3.35;;;7.40;99.90;;;;;;4250222;27;20051;-82
2021/12/16 05:52:14;;;;;;;9.65;3.60;;;7.20;99.90;;;;;;4249828;27;20082;-82
2021/12/16 05:54:16;;;;;;;12.20;3.40;;;7.30;99.90;;;;;;4231570;28;20082;-82
2021/12/16 05:56:17;;;;;;;10.32;3.55;;;7.20;99.90;;;;;;4249122;27;20043;-82
2021/12/16 05:58:20;;;;;;;11.70;3.28;;;7.30;99.90;;;;;;4231709;28;20097;-82
2021/12/16 06:00:24;;;;;;;10.00;3.53;;;7.20;99.90;;;;;;4257073;27;20074;-82
2021/12/16 06:02:26;;;;;;;12.48;3.78;;;7.70;99.90;;;;;;4250381;27;20038;-81
2021/12/16 06:04:26;;;;;;;17.75;4.90;;;7.50;99.90;;;;;;4250020;27;20046;-81
2021/12/16 06:06:28;;;;;;;9.43;3.35;;;7.20;99.90;;;;;;4231222;28;20044;-81
2021/12/16 06:08:29;;;;;;;8.68;3.42;;;7.90;99.90;;;;;;4231876;28;20046;-84
2021/12/16 06:12:33;;;;;;;14.07;4.75;;;7.20;99.90;;;;;;4267073;27;20050;-81
2021/12/16 06:28:26;;;;;;;20.92;4.15;;;7.60;99.90;;;;;;4247483;27;20043;-81
2021/12/16 06:30:30;;;;;;;11.15;3.60;;;7.50;99.90;;;;;;4229292;28;20123;-81
2021/12/16 06:32:31;;;;;;;11.82;3.72;;;7.40;99.90;;;;;;4248230;27;20043;-81
2021/12/16 06:34:32;;;;;;;18.58;5.05;;;7.40;99.90;;;;;;4247579;27;20049;-81
2021/12/16 06:36:33;;;;;;;13.32;3.90;;;7.40;99.90;;;;;;4213468;28;20060;-81
2021/12/16 06:38:34;;;;;;;16.98;4.22;;;7.70;99.90;;;;;;4230566;28;20039;-80
2021/12/16 06:40:35;;;;;;;13.75;3.30;;;7.40;99.90;;;;;;4248789;27;20047;-80
2021/12/16 06:42:39;;;;;;;10.95;3.80;;;7.80;99.90;;;;;;4231019;28;20101;-80
2021/12/16 06:44:50;;;;;;;16.77;4.78;;;7.60;99.90;;;;;;4248951;27;20035;-81
2021/12/16 06:46:56;;;;;;;17.90;3.95;;;7.40;99.90;;;;;;4230755;28;20036;-81
2021/12/16 06:48:59;;;;;;;13.38;3.25;;;7.40;99.90;;;;;;4248511;27;20054;-80
2021/12/16 06:51:07;;;;;;;11.65;3.95;;;7.40;99.90;;;;;;4230083;27;20051;-80
2021/12/16 06:53:12;;;;;;;15.32;3.88;;;7.80;99.90;;;;;;4241779;27;20035;-81
2021/12/16 06:55:27;;;;;;;16.25;5.18;;;7.50;99.90;;;;;;4247456;27;20118;-81
2021/12/16 06:59:37;;;;;;;18.02;4.63;;;7.50;99.90;;;;;;4233155;27;20143;-81
2021/12/16 07:01:41;;;;;;;10.23;4.25;;;7.50;99.90;;;;;;4248840;27;20407;-81
2021/12/16 07:03:50;;;;;;;16.80;4.25;;;7.50;99.90;;;;;;4229757;28;20101;-81
2021/12/16 07:05:53;;;;;;;16.90;4.68;;;7.90;99.90;;;;;;4248500;27;20047;-81
2021/12/16 07:07:54;;;;;;;12.85;3.67;;;7.80;99.90;;;;;;4239178;27;20035;-81
2021/12/16 07:09:55;;;;;;;16.67;4.07;;;7.50;99.90;;;;;;4265656;27;20096;-81
2021/12/16 07:11:58;;;;;;;16.92;3.70;;;7.90;99.90;;;;;;4247211;27;20522;-82
2021/12/16 07:14:01;;;;;;;12.57;3.78;;;7.80;99.90;;;;;;4246703;27;20479;-82
2021/12/16 07:16:04;;;;;;;17.92;4.90;;;8.10;99.90;;;;;;4246967;27;20548;-82
2021/12/16 07:18:05;;;;;;;13.40;5.32;;;7.60;99.90;;;;;;4230068;28;20051;-82
2021/12/16 07:20:09;;;;;;;16.90;4.20;;;7.50;99.90;;;;;;4247619;27;20505;-84
2021/12/16 07:22:11;;;;;;;16.45;4.57;;;7.50;99.90;;;;;;4230510;28;20050;-84
2021/12/16 07:24:15;;;;;;;12.55;4.00;;;7.60;99.90;;;;;;4242526;27;20475;-85
2021/12/16 07:26:16;;;;;;;11.70;3.88;;;7.50;99.90;;;;;;4248273;27;20122;-86
2021/12/16 07:28:17;;;;;;;10.30;3.85;;;7.50;99.90;;;;;;4230231;28;20062;-85
2021/12/16 07:30:20;;;;;;;12.38;3.47;;;7.50;99.90;;;;;;4248799;27;20067;-85
2021/12/16 07:32:21;;;;;;;13.38;4.20;;;8.20;99.90;;;;;;4213593;28;20040;-85
2021/12/16 07:34:22;;;;;;;17.55;4.15;;;7.50;99.90;;;;;;4217796;28;20044;-85
2021/12/16 07:36:25;;;;;;;11.63;3.15;;;7.50;99.90;;;;;;4228776;28;20108;-85
2021/12/16 07:38:26;;;;;;;14.35;3.90;;;7.50;99.90;;;;;;4246886;27;20049;-85
2021/12/16 07:40:29;;;;;;;19.48;3.53;;;7.50;99.90;;;;;;4246712;27;20062;-85
2021/12/16 07:42:41;;;;;;;13.75;4.82;;;7.40;99.90;;;;;;4246655;27;20050;-84
2021/12/16 07:44:42;;;;;;;15.18;4.40;;;7.70;99.90;;;;;;4250303;27;20248;-84
2021/12/16 07:46:52;;;;;;;11.95;4.50;;;7.40;99.90;;;;;;4252027;27;20070;-84
2021/12/16 07:48:53;;;;;;;21.88;3.70;;;7.30;99.90;;;;;;4252349;27;20066;-84
2021/12/16 07:51:05;;;;;;;10.88;3.47;;;7.30;99.90;;;;;;4237715;27;20044;-84
2021/12/16 07:53:06;;;;;;;10.35;3.80;;;7.30;99.90;;;;;;4230225;28;20056;-84
2021/12/16 07:55:09;;;;;;;17.00;4.78;;;7.60;99.90;;;;;;4238069;28;20100;-84
2021/12/16 07:57:10;;;;;;;13.25;4.38;;;7.20;99.90;;;;;;4221775;28;20055;-84
2021/12/16 07:59:11;;;;;;;11.57;4.57;;;7.50;99.90;;;;;;4219528;28;20099;-83
2021/12/16 08:01:12;;;;;;;12.82;3.78;;;7.10;99.90;;;;;;4231535;28;20040;-83
2021/12/16 08:03:14;;;;;;;8.82;3.78;;;7.70;99.90;;;;;;4233167;28;20564;-83
2021/12/16 08:05:16;;;;;;;16.35;3.80;;;7.10;99.90;;;;;;4226485;28;20051;-83
2021/12/16 08:07:20;;;;;;;9.68;4.10;;;7.50;99.90;;;;;;4245730;27;20083;-83
2021/12/16 08:09:23;;;;;;;17.33;4.65;;;7.80;99.90;;;;;;4231643;28;20040;-83
2021/12/16 08:11:33;;;;;;;16.40;4.47;;;7.10;99.90;;;;;;4227211;28;20388;-84
2021/12/16 08:13:34;;;;;;;12.13;4.18;;;7.50;99.90;;;;;;4233222;28;20066;-84
2021/12/16 08:15:35;;;;;;;13.95;4.75;;;7.90;99.90;;;;;;4248121;27;20059;-84
2021/12/16 08:17:36;;;;;;;15.05;4.82;;;8.00;99.90;;;;;;4228923;28;20054;-85
2021/12/16 08:19:37;;;;;;;15.40;4.50;;;7.30;99.90;;;;;;4231249;28;20515;-84
2021/12/16 08:21:39;;;;;;;18.85;4.35;;;7.10;99.90;;;;;;4232442;28;20105;-84
2021/12/16 08:23:40;;;;;;;17.48;4.75;;;7.10;99.90;;;;;;4232871;28;20100;-84
2021/12/16 08:25:41;;;;;;;12.05;4.53;;;7.90;99.90;;;;;;4231226;28;20047;-84
2021/12/16 08:27:42;;;;;;;14.75;4.28;;;7.60;99.90;;;;;;4231243;28;20493;-85
2021/12/16 08:29:43;;;;;;;15.68;4.75;;;7.20;99.90;;;;;;4232748;28;20088;-84
2021/12/16 08:31:44;;;;;;;19.55;4.68;;;7.20;99.90;;;;;;4236378;28;20059;-84
2021/12/16 08:33:46;;;;;;;15.80;4.68;;;7.20;99.90;;;;;;4237622;28;20044;-84
2021/12/16 08:35:52;;;;;;;14.65;4.55;;;7.30;99.90;;;;;;4234357;28;20061;-85
2021/12/16 08:37:57;;;;;;;12.93;4.90;;;7.30;99.90;;;;;;4215632;28;20043;-85
2021/12/16 08:39:58;;;;;;;11.02;4.53;;;7.40;99.90;;;;;;4234011;28;20047;-86
2021/12/16 08:42:01;;;;;;;19.00;5.20;;;7.40;99.90;;;;;;4249655;27;20385;-86
2021/12/16 08:44:02;;;;;;;15.70;4.70;;;7.50;99.90;;;;;;4231562;28;20077;-86
2021/12/16 08:46:03;;;;;;;17.95;4.70;;;7.50;99.90;;;;;;4235725;28;20047;-86
2021/12/16 08:48:05;;;;;;;23.70;5.07;;;8.40;99.90;;;;;;4232518;28;20049;-86
2021/12/16 08:50:10;;;;;;;15.32;5.00;;;8.40;99.90;;;;;;4225192;28;20047;-86
2021/12/16 08:52:20;;;;;;;16.95;4.95;;;8.00;99.90;;;;;;4233152;28;20039;-86
2021/12/16 08:54:23;;;;;;;29.10;5.55;;;8.20;99.90;;;;;;4214293;28;20047;-86
2021/12/16 08:56:30;;;;;;;19.38;6.22;;;7.60;99.90;;;;;;4213868;28;20059;-86
2021/12/16 08:58:31;;;;;;;17.65;5.50;;;8.00;99.90;;;;;;4219878;28;20050;-86
2021/12/16 09:00:37;;;;;;;18.00;4.40;;;7.70;99.90;;;;;;4249556;27;20039;-86
2021/12/16 09:02:38;;;;;;;21.10;6.03;;;7.90;99.90;;;;;;4231304;28;20054;-86
2021/12/16 09:04:40;;;;;;;11.77;5.03;;;8.10;99.90;;;;;;4224383;28;20044;-85
2021/12/16 09:06:41;;;;;;;23.75;5.35;;;8.10;99.90;;;;;;4231276;28;20120;-85
2021/12/16 09:08:43;;;;;;;19.48;5.10;;;8.60;99.90;;;;;;4233088;28;20126;-85
2021/12/16 09:10:47;;;;;;;31.45;5.90;;;7.70;99.90;;;;;;4239995;28;20065;-86
2021/12/16 09:13:03;;;;;;;13.55;5.10;;;7.70;99.90;;;;;;4249200;27;20054;-85
2021/12/16 09:15:09;;;;;;;19.38;5.53;;;7.70;99.90;;;;;;4249976;28;20035;-86
2021/12/16 09:17:14;;;;;;;22.10;5.72;;;7.70;99.90;;;;;;4222787;28;20440;-86
2021/12/16 09:19:15;;;;;;;15.38;6.00;;;7.70;99.90;;;;;;4214597;28;20109;-86
2021/12/16 09:21:26;;;;;;;22.27;7.32;;;8.30;99.90;;;;;;4215206;28;20052;-86
2021/12/16 09:23:28;;;;;;;30.15;6.93;;;7.70;99.90;;;;;;4213787;28;20471;-86
2021/12/16 09:25:29;;;;;;;13.43;5.63;;;8.00;99.90;;;;;;4222713;28;20584;-85
2021/12/16 09:27:31;;;;;;;20.45;5.80;;;7.80;99.90;;;;;;4213887;28;20036;-85
2021/12/16 09:29:32;;;;;;;17.90;5.68;;;7.80;99.90;;;;;;4213580;28;20123;-85
2021/12/16 09:31:34;;;;;;;28.58;6.03;;;7.80;99.90;;;;;;4230400;28;20053;-85
2021/12/16 09:33:47;;;;;;;27.48;6.68;;;8.70;99.90;;;;;;4232098;28;20088;-86
2021/12/16 09:35:54;;;;;;;22.45;6.80;;;8.20;99.90;;;;;;4223702;28;20063;-86
2021/12/16 09:37:56;;;;;;;32.58;6.30;;;8.00;99.90;;;;;;4231710;28;20043;-86
2021/12/16 09:39:57;;;;;;;35.65;5.93;;;8.00;99.90;;;;;;4229123;28;20760;-85
2021/12/16 09:41:59;;;;;;;27.90;6.72;;;8.00;99.90;;;;;;4224155;28;20043;-86
2021/12/16 09:44:00;;;;;;;38.67;6.68;;;8.00;99.90;;;;;;4223117;28;20073;-86
2021/12/16 09:46:06;;;;;;;56.63;7.40;;;8.70;99.90;;;;;;4213724;28;20044;-86
2021/12/16 09:48:07;;;;;;;29.17;5.50;;;8.40;99.90;;;;;;4223636;28;20051;-85
2021/12/16 09:50:12;;;;;;;34.10;6.47;;;8.00;99.90;;;;;;4213252;28;20062;-86
2021/12/16 09:52:14;;;;;;;45.47;6.50;;;8.70;99.90;;;;;;4196817;28;20048;-85
2021/12/16 09:54:20;;;;;;;26.55;5.70;;;8.30;99.90;;;;;;4218662;28;20063;-86
2021/12/16 09:56:23;;;;;;;48.53;7.05;;;8.10;99.90;;;;;;4215028;28;20040;-86
2021/12/16 09:58:39;;;;;;;25.73;6.05;;;8.10;99.90;;;;;;4219848;28;20043;-85
2021/12/16 10:00:40;;;;;;;48.33;6.57;;;8.10;99.90;;;;;;4214712;28;20135;-85
2021/12/16 10:02:41;;;;;;;31.70;7.13;;;8.10;99.90;;;;;;4199101;28;20059;-85
2021/12/16 10:04:42;;;;;;;27.10;5.50;;;8.40;99.90;;;;;;4221920;28;20074;-86
2021/12/16 10:06:43;;;;;;;15.88;5.35;;;8.80;99.90;;;;;;4225566;28;20043;-85
2021/12/16 10:08:47;;;;;;;32.10;5.88;;;9.10;99.90;;;;;;4217279;28;20069;-86
2021/12/16 10:10:48;;;;;;;49.78;5.68;;;8.30;99.90;;;;;;4216850;28;20507;-85
2021/12/16 10:12:51;;;;;;;53.78;6.57;;;8.30;99.90;;;;;;4217976;28;20112;-85
2021/12/16 10:17:33;;;;;;;61.65;6.07;;;8.30;99.90;;;;;;4224391;28;20101;-84
2021/12/16 10:19:28;;;;;;;73.20;6.32;;;8.30;99.90;;;;;;4214149;28;20446;-85
2021/12/16 10:21:30;;;;;;;76.95;6.47;;;8.30;99.90;;;;;;4216322;28;20123;-85
2021/12/16 10:23:43;;;;;;;66.40;5.72;;;8.40;99.90;;;;;;4231384;28;20044;-85
2021/12/16 10:25:48;;;;;;;61.65;6.13;;;8.40;99.90;;;;;;4235558;28;20502;-85
2021/12/16 10:28:16;;;;;;;69.85;6.43;;;8.70;99.90;;;;;;4220049;28;20047;-85
2021/12/16 10:30:16;;;;;;;60.60;5.57;;;8.40;99.90;;;;;;4220024;28;20092;-85
2021/12/16 10:32:50;;;;;;;50.67;4.70;;;8.40;99.90;;;;;;4218125;28;20595;-85
2021/12/16 10:34:59;;;;;;;52.30;5.57;;;8.40;99.90;;;;;;4215894;28;20146;-85
2021/12/16 10:37:00;;;;;;;39.75;5.30;;;8.60;99.90;;;;;;4280974;27;20047;-85
2021/12/16 10:39:09;;;;;;;45.10;6.15;;;8.40;99.90;;;;;;4251406;28;20506;-85
2021/12/16 10:41:21;;;;;;;37.75;5.25;;;8.60;99.90;;;;;;4285148;27;20045;-84
2021/12/16 10:43:40;;;;;;;108.47;6.93;;;8.40;99.90;;;;;;4235533;28;20082;-85
2021/12/16 10:45:48;;;;;;;95.35;6.45;;;8.40;99.90;;;;;;4234474;28;20500;-85
2021/12/16 10:48:22;;;;;;;74.43;7.30;;;8.50;99.90;;;;;;4253384;27;20047;-85
2021/12/16 10:50:23;;;;;;;43.30;5.28;;;8.40;99.90;;;;;;4237996;27;20132;-85
2021/12/16 10:52:29;;;;;;;100.00;7.05;;;8.40;99.90;;;;;;4243261;27;20051;-85
2021/12/16 10:54:36;;;;;;;87.47;6.85;;;8.80;99.90;;;;;;4251501;27;20409;-85
2021/12/16 10:57:11;;;;;;;59.97;6.00;;;8.30;99.90;;;;;;4225489;28;20047;-86
2021/12/16 10:59:16;;;;;;;35.53;5.30;;;8.30;99.90;;;;;;4249678;27;20058;-86
2021/12/16 11:01:32;;;;;;;62.63;6.50;;;8.40;99.90;;;;;;4251435;27;20130;-86
2021/12/16 11:03:43;;;;;;;39.70;5.63;;;8.40;99.90;;;;;;4251687;27;20054;-84
2021/12/16 11:05:44;;;;;;;50.95;6.13;;;8.40;99.90;;;;;;4250768;27;20053;-85
2021/12/16 11:07:48;;;;;;;38.00;5.93;;;8.40;99.90;;;;;;4216157;28;20391;-86
2021/12/16 11:09:59;;;;;;;72.45;7.15;;;8.70;99.90;;;;;;4249103;27;20047;-86
2021/12/16 11:12:20;;;;;;;54.67;8.20;;;8.50;99.90;;;;;;4250805;27;20053;-86
2021/12/16 11:14:22;;;;;;;32.90;6.60;;;8.50;99.90;;;;;;4231666;28;20046;-85
2021/12/16 11:16:34;;;;;;;63.90;7.68;;;8.50;99.90;;;;;;4249641;27;20468;-85
2021/12/16 11:18:38;;;;;;;45.38;7.13;;;8.50;99.90;;;;;;4231892;28;20051;-86
2021/12/16 11:20:46;;;;;;;38.97;7.22;;;8.50;99.90;;;;;;4232416;28;20044;-86
2021/12/16 11:22:49;;;;;;;81.50;8.48;;;8.50;99.90;;;;;;4232571;28;20043;-85
2021/12/16 11:24:53;;;;;;;53.40;8.60;;;8.60;99.90;;;;;;4232867;28;20055;-85
2021/12/16 11:26:54;;;;;;;28.00;7.53;;;8.50;99.90;;;;;;4233519;28;20055;-86
2021/12/16 11:28:55;;;;;;;22.90;5.35;;;8.60;99.90;;;;;;4215391;28;20056;-85
2021/12/16 11:31:01;;;;;;;22.67;5.93;;;8.60;99.90;;;;;;4215756;28;20063;-85
2021/12/16 11:33:34;;;;;;;41.70;6.63;;;8.60;99.90;;;;;;4232302;28;20558;-85
2021/12/16 11:35:37;;;;;;;55.25;7.60;;;8.60;99.90;;;;;;4246528;27;20103;-85
2021/12/16 11:37:47;;;;;;;29.00;6.63;;;8.60;99.90;;;;;;4267234;27;20054;-85
2021/12/16 11:39:47;;;;;;;52.78;7.95;;;8.60;99.90;;;;;;4232239;28;20047;-85
2021/12/16 11:42:00;;;;;;;35.50;7.03;;;9.10;99.90;;;;;;4215972;28;20051;-86
2021/12/16 11:44:15;;;;;;;39.08;7.22;;;8.50;99.90;;;;;;4250883;27;20089;-85
2021/12/16 11:46:27;;;;;;;25.10;6.30;;;8.50;99.90;;;;;;4235771;27;20056;-86
2021/12/16 11:48:32;;;;;;;30.45;6.35;;;8.60;99.90;;;;;;4232481;28;20081;-86
2021/12/16 11:50:44;;;;;;;33.00;6.18;;;8.60;99.90;;;;;;4215863;28;20302;-85
2021/12/16 11:52:51;;;;;;;27.90;6.80;;;8.60;99.90;;;;;;4250774;27;20115;-86
2021/12/16 11:55:05;;;;;;;24.50;6.45;;;8.60;99.90;;;;;;4231753;28;20083;-86
2021/12/16 11:57:20;;;;;;;24.52;5.75;;;8.60;99.90;;;;;;4215150;28;20048;-86
2021/12/16 11:59:29;;;;;;;77.53;7.47;;;8.70;99.90;;;;;;4231126;28;20530;-85
2021/12/16 12:01:30;;;;;;;72.60;6.88;;;8.60;99.90;;;;;;4250348;27;20046;-86
2021/12/16 12:03:34;;;;;;;32.30;6.63;;;8.60;99.90;;;;;;4233086;28;20089;-86
2021/12/16 12:05:44;;;;;;;56.22;6.60;;;8.60;99.90;;;;;;4232400;28;20092;-87
2021/12/16 12:07:49;;;;;;;31.67;6.95;;;8.60;99.90;;;;;;4233218;28;20044;-85
2021/12/16 12:09:53;;;;;;;32.38;6.95;;;9.10;99.90;;;;;;4215409;28;20092;-84
2021/12/16 12:11:54;;;;;;;29.75;6.60;;;8.60;99.90;;;;;;4249556;27;20043;-83
2021/12/16 12:14:04;;;;;;;41.63;7.60;;;8.90;99.90;;;;;;4248752;27;20035;-83
2021/12/16 12:16:10;;;;;;;55.75;7.47;;;8.60;99.90;;;;;;4249127;27;20043;-83
2021/12/16 12:18:11;;;;;;;37.03;7.30;;;8.60;99.90;;;;;;4231111;28;20123;-83
2021/12/16 12:20:12;;;;;;;27.35;7.25;;;8.60;99.90;;;;;;4249297;27;20051;-83
2021/12/16 12:22:14;;;;;;;28.52;7.20;;;8.60;99.90;;;;;;4230139;28;20427;-82
2021/12/16 12:24:21;;;;;;;30.75;7.70;;;8.60;99.90;;;;;;4213783;28;20570;-83
2021/12/16 12:26:23;;;;;;;54.83;8.07;;;8.70;99.90;;;;;;4231534;28;20047;-83
2021/12/16 12:28:24;;;;;;;34.78;7.75;;;8.70;99.90;;;;;;4230431;28;20058;-83
2021/12/16 12:30:25;;;;;;;48.15;8.05;;;8.60;99.90;;;;;;4230065;28;20035;-83
2021/12/16 12:32:31;;;;;;;53.78;8.65;;;8.60;99.90;;;;;;4230646;28;20532;-83
2021/12/16 12:34:34;;;;;;;30.27;7.95;;;8.60;99.90;;;;;;4231245;28;20120;-84
2021/12/16 12:36:36;;;;;;;31.50;7.57;;;8.70;99.90;;;;;;4249135;27;20055;-83
2021/12/16 12:38:39;;;;;;;30.02;7.25;;;9.00;99.90;;;;;;4248634;27;20043;-84
2021/12/16 12:40:43;;;;;;;26.67;7.32;;;8.60;99.90;;;;;;4249562;27;20058;-83
2021/12/16 12:42:45;;;;;;;41.92;7.97;;;8.60;99.90;;;;;;4214995;28;20091;-84
2021/12/16 12:44:47;;;;;;;25.23;7.57;;;8.70;99.90;;;;;;4213670;28;20044;-83
2021/12/16 12:46:50;;;;;;;26.35;6.82;;;8.60;99.90;;;;;;4230988;28;20533;-83
2021/12/16 12:48:53;;;;;;;20.52;7.47;;;8.60;99.90;;;;;;4230897;28;20066;-84
2021/12/16 12:50:58;;;;;;;20.77;6.78;;;8.70;99.90;;;;;;4250810;28;20465;-84
2021/12/16 12:53:14;;;;;;;17.73;6.47;;;8.70;99.90;;;;;;4233131;28;20072;-83
2021/12/16 12:55:28;;;;;;;23.17;7.30;;;8.70;99.90;;;;;;4248993;28;20186;-83
2021/12/16 12:57:34;;;;;;;23.80;6.75;;;8.70;99.90;;;;;;4250093;28;20074;-84
2021/12/16 12:59:38;;;;;;;23.27;6.85;;;8.70;99.90;;;;;;4233501;28;20069;-83
2021/12/16 13:01:53;;;;;;;25.13;6.63;;;8.70;99.90;;;;;;4234180;28;20039;-84
2021/12/16 13:04:03;;;;;;;26.17;6.32;;;8.70;99.90;;;;;;4213500;28;20506;-84
2021/12/16 13:06:17;;;;;;;34.67;7.68;;;8.70;99.90;;;;;;4232204;28;20051;-84
2021/12/16 13:08:27;;;;;;;21.85;7.13;;;8.80;99.90;;;;;;4232598;28;20178;-83
2021/12/16 13:10:32;;;;;;;26.65;7.03;;;8.70;99.90;;;;;;4231234;28;20125;-83
2021/12/16 13:12:44;;;;;;;33.20;7.30;;;8.70;99.90;;;;;;4248836;28;20529;-84
2021/12/16 13:14:50;;;;;;;22.88;7.47;;;8.80;99.90;;;;;;4248390;28;20554;-83
2021/12/16 13:26:38;;;;;;;;;;;8.70;99.90;;;;;;4230910;28;20047;-83
2021/12/16 13:28:50;;;;;;;18.67;6.05;;;8.70;99.90;;;;;;4257389;27;20343;-83
2021/12/16 13:30:58;;;;;;;20.45;7.30;;;8.80;99.90;;;;;;4231633;28;20076;-83
2021/12/16 13:33:20;;;;;;;21.00;7.78;;;9.30;99.90;;;;;;4249298;28;20090;-84